Time;durP1;ratioP1;P1;durP2;ratioP2;P2;SDS_P1;SDS_P2;PMS_P1;PMS_P2;Temp;Humidity;BMP_temperature;BMP_pressure;BME280_temperature;BME280_humidity;BME280_pressure;Samples;Min_cycle;Max_cycle;Signal;HPM_P1;HPM_P2
2021/12/23 00:01:31;;;;;;;43.15;26.73;;;;;;;;;;4930291;29;20137;-76
2021/12/23 00:03:57;;;;;;;50.65;28.17;;;;;;;;;;4932394;29;20481;-76
2021/12/23 00:06:23;;;;;;;50.15;28.10;;;;;;;;;;4936044;29;20051;-77
2021/12/23 00:08:49;;;;;;;50.08;29.92;;;;;;;;;;4930805;29;20043;-77
2021/12/23 00:11:14;;;;;;;35.42;25.52;;;;;;;;;;4930745;29;20522;-76
2021/12/23 00:13:48;;;;;;;38.70;26.63;;;;;;;;;;4932122;29;20419;-74
2021/12/23 00:16:18;;;;;;;39.40;27.05;;;;;;;;;;4937014;29;20115;-77
2021/12/23 00:18:53;;;;;;;64.43;34.65;;;;;;;;;;4931532;29;20062;-76
2021/12/23 00:24:03;;;;;;;46.78;28.48;;;;;;;;;;4972887;28;20100;-74
2021/12/23 00:26:29;;;;;;;50.10;26.67;;;;;;;;;;4978364;28;20113;-75
2021/12/23 00:28:56;;;;;;;36.95;24.45;;;;;;;;;;4971978;28;20078;-75
2021/12/23 00:31:22;;;;;;;21.45;17.33;;;;;;;;;;4970875;28;20042;-76
2021/12/23 00:33:47;;;;;;;37.45;25.08;;;;;;;;;;4976670;28;20035;-75
2021/12/23 00:36:13;;;;;;;42.60;26.35;;;;;;;;;;4971883;28;20434;-73
2021/12/23 00:38:49;;;;;;;46.53;27.63;;;;;;;;;;4971681;28;20518;-75
2021/12/23 00:41:14;;;;;;;19.60;17.77;;;;;;;;;;4977696;28;20043;-75
2021/12/23 00:43:40;;;;;;;47.53;26.73;;;;;;;;;;4974138;28;20049;-75
2021/12/23 00:46:06;;;;;;;50.10;27.17;;;;;;;;;;4971237;28;20154;-76
2021/12/23 00:48:35;;;;;;;50.00;27.42;;;;;;;;;;4971448;28;20051;-75
2021/12/23 00:51:03;;;;;;;32.88;23.98;;;;;;;;;;4975933;28;20042;-76
2021/12/23 00:53:35;;;;;;;29.25;23.63;;;;;;;;;;4971164;28;20049;-76
2021/12/23 00:56:01;;;;;;;41.15;28.60;;;;;;;;;;4970867;28;20031;-77
2021/12/23 00:58:26;;;;;;;46.92;26.38;;;;;;;;;;4987931;28;20047;-76
2021/12/23 01:00:53;;;;;;;33.40;18.50;;;;;;;;;;4969686;28;20452;-75
2021/12/23 01:03:19;;;;;;;29.98;21.00;;;;;;;;;;4970941;28;20039;-76
2021/12/23 01:05:45;;;;;;;43.35;26.45;;;;;;;;;;4973215;28;20048;-75
2021/12/23 01:08:10;;;;;;;40.08;26.20;;;;;;;;;;4971261;28;20042;-75
2021/12/23 01:10:36;;;;;;;28.92;21.70;;;;;;;;;;4970874;28;20047;-76
2021/12/23 01:13:04;;;;;;;35.88;23.13;;;;;;;;;;4987179;28;20070;-75
2021/12/23 01:18:14;;;;;;;24.15;18.80;;;;;;;;;;4964940;28;20038;-76
2021/12/23 01:20:51;;;;;;;25.33;19.88;;;;;;;;;;4967160;28;20034;-76
2021/12/23 01:23:19;;;;;;;19.38;15.90;;;;;;;;;;4972107;28;20677;-74
2021/12/23 01:25:45;;;;;;;19.60;16.10;;;;;;;;;;4973227;28;20516;-75
2021/12/23 01:28:11;;;;;;;30.65;22.95;;;;;;;;;;4986344;28;20055;-75
2021/12/23 01:30:38;;;;;;;28.70;18.52;;;;;;;;;;4970490;28;20041;-73
2021/12/23 01:33:06;;;;;;;25.88;21.73;;;;;;;;;;4974871;28;20046;-75
2021/12/23 01:35:32;;;;;;;31.30;22.80;;;;;;;;;;4970153;28;20105;-75
2021/12/23 01:37:58;;;;;;;22.58;18.23;;;;;;;;;;4970803;28;20114;-73
2021/12/23 01:40:24;;;;;;;30.67;21.48;;;;;;;;;;4971939;28;20038;-75
2021/12/23 01:42:50;;;;;;;34.45;22.63;;;;;;;;;;4975738;28;20039;-75
2021/12/23 01:45:20;;;;;;;18.48;16.40;;;;;;;;;;4970398;28;20525;-74
2021/12/23 01:47:46;;;;;;;21.58;19.08;;;;;;;;;;4968689;28;20146;-74
2021/12/23 01:50:15;;;;;;;20.73;18.75;;;;;;;;;;4977445;28;20038;-75
2021/12/23 01:52:40;;;;;;;24.70;19.08;;;;;;;;;;4970480;28;20125;-76
2021/12/23 01:55:08;;;;;;;17.73;16.08;;;;;;;;;;4970211;28;20114;-75
2021/12/23 01:57:34;;;;;;;24.05;18.55;;;;;;;;;;4970722;28;20035;-77
2021/12/23 02:00:05;;;;;;;43.13;24.92;;;;;;;;;;4970141;28;20031;-75
2021/12/23 02:02:39;;;;;;;21.33;18.55;;;;;;;;;;4968278;28;20057;-74
2021/12/23 02:05:05;;;;;;;34.00;19.17;;;;;;;;;;4969996;28;20042;-75
2021/12/23 02:07:31;;;;;;;27.67;21.98;;;;;;;;;;4969255;28;20061;-74
2021/12/23 02:09:56;;;;;;;39.97;25.17;;;;;;;;;;4972761;28;20113;-75
2021/12/23 02:12:22;;;;;;;40.33;25.05;;;;;;;;;;4969050;28;20132;-75
2021/12/23 02:14:48;;;;;;;44.67;24.63;;;;;;;;;;4970608;28;20089;-75
2021/12/23 02:17:13;;;;;;;33.90;23.30;;;;;;;;;;4975214;28;20034;-76
2021/12/23 02:19:39;;;;;;;35.22;23.75;;;;;;;;;;4974276;28;20046;-75
2021/12/23 02:22:05;;;;;;;28.17;20.63;;;;;;;;;;4969940;28;20039;-73
2021/12/23 02:24:30;;;;;;;18.88;17.15;;;;;;;;;;4969664;28;20089;-77
2021/12/23 02:26:56;;;;;;;27.38;21.83;;;;;;;;;;4970530;28;20037;-76
2021/12/23 02:29:22;;;;;;;26.48;19.40;;;;;;;;;;4969242;28;20545;-75
2021/12/23 02:31:49;;;;;;;18.70;16.83;;;;;;;;;;4967543;28;20086;-75
2021/12/23 02:34:17;;;;;;;22.60;20.33;;;;;;;;;;4976629;28;20465;-75
2021/12/23 02:36:50;;;;;;;16.27;14.77;;;;;;;;;;4969849;28;20030;-77
2021/12/23 02:39:16;;;;;;;19.85;17.80;;;;;;;;;;4969758;28;20530;-75
2021/12/23 02:41:41;;;;;;;22.30;19.35;;;;;;;;;;4971485;28;20046;-76
2021/12/23 02:44:07;;;;;;;28.90;19.48;;;;;;;;;;4972089;28;20038;-76
2021/12/23 02:46:35;;;;;;;28.13;20.50;;;;;;;;;;4969391;28;20031;-76
2021/12/23 02:49:01;;;;;;;35.95;23.33;;;;;;;;;;4969361;28;20047;-76
2021/12/23 02:51:27;;;;;;;39.75;23.67;;;;;;;;;;4968207;28;20031;-76
2021/12/23 02:53:52;;;;;;;20.10;17.85;;;;;;;;;;4976965;28;20031;-74
2021/12/23 02:56:18;;;;;;;41.65;25.70;;;;;;;;;;4968366;28;20043;-73
2021/12/23 02:58:47;;;;;;;36.38;25.35;;;;;;;;;;4969845;28;20541;-77
2021/12/23 03:01:16;;;;;;;26.08;20.50;;;;;;;;;;4967646;28;20133;-75
2021/12/23 03:03:43;;;;;;;25.27;17.67;;;;;;;;;;4976159;28;20041;-76
2021/12/23 03:06:11;;;;;;;30.50;22.98;;;;;;;;;;4969297;28;20053;-76
2021/12/23 03:08:48;;;;;;;32.22;22.13;;;;;;;;;;4969631;28;20039;-75
2021/12/23 03:11:19;;;;;;;29.95;21.98;;;;;;;;;;4988435;28;20038;-74
2021/12/23 03:13:46;;;;;;;42.25;25.95;;;;;;;;;;4991163;28;20042;-74
2021/12/23 03:16:13;;;;;;;36.08;23.58;;;;;;;;;;4990071;28;20031;-76
2021/12/23 03:18:39;;;;;;;38.28;25.55;;;;;;;;;;5006043;28;20037;-75
2021/12/23 03:21:05;;;;;;;23.70;20.48;;;;;;;;;;4999268;28;20094;-74
2021/12/23 03:23:32;;;;;;;28.35;21.35;;;;;;;;;;4986778;28;20053;-76
2021/12/23 03:25:59;;;;;;;37.45;24.58;;;;;;;;;;4973676;28;20046;-75
2021/12/23 03:28:25;;;;;;;45.55;27.95;;;;;;;;;;4975464;28;20043;-75
2021/12/23 03:30:51;;;;;;;37.95;25.75;;;;;;;;;;4973106;28;20034;-76
2021/12/23 03:33:17;;;;;;;31.17;20.27;;;;;;;;;;4970888;28;20044;-76
2021/12/23 03:35:44;;;;;;;22.10;17.05;;;;;;;;;;4978095;28;20034;-76
2021/12/23 03:38:10;;;;;;;20.67;18.48;;;;;;;;;;4972521;28;20039;-76
2021/12/23 03:40:37;;;;;;;22.80;19.00;;;;;;;;;;4972396;28;20042;-75
2021/12/23 03:43:03;;;;;;;47.67;26.80;;;;;;;;;;4973637;28;20039;-76
2021/12/23 03:45:29;;;;;;;33.13;21.75;;;;;;;;;;4972914;28;20038;-76
2021/12/23 03:47:54;;;;;;;33.25;23.08;;;;;;;;;;4972333;28;20030;-77
2021/12/23 03:50:22;;;;;;;23.10;17.90;;;;;;;;;;4969330;28;20449;-75
2021/12/23 03:52:49;;;;;;;19.33;17.48;;;;;;;;;;4976797;28;20715;-75
2021/12/23 03:55:16;;;;;;;27.10;19.67;;;;;;;;;;4972285;28;20528;-74
2021/12/23 03:57:42;;;;;;;17.75;15.65;;;;;;;;;;4972691;28;20035;-73
2021/12/23 04:00:12;;;;;;;21.23;17.55;;;;;;;;;;4972324;28;20031;-76
2021/12/23 04:02:38;;;;;;;35.38;23.88;;;;;;;;;;4970977;28;20050;-76
2021/12/23 04:05:06;;;;;;;34.65;24.05;;;;;;;;;;4971011;28;20061;-76
2021/12/23 04:07:33;;;;;;;31.75;20.25;;;;;;;;;;4972050;28;20041;-76
2021/12/23 04:09:59;;;;;;;33.70;21.67;;;;;;;;;;4979479;28;20042;-74
2021/12/23 04:12:25;;;;;;;27.35;19.30;;;;;;;;;;4973370;28;20034;-75
2021/12/23 04:14:50;;;;;;;17.30;15.68;;;;;;;;;;4972357;28;20042;-75
2021/12/23 04:17:16;;;;;;;22.73;17.25;;;;;;;;;;4970468;28;20039;-76
2021/12/23 04:19:45;;;;;;;31.30;22.40;;;;;;;;;;4975596;28;20046;-74
2021/12/23 04:22:11;;;;;;;32.80;22.67;;;;;;;;;;4975503;28;20117;-74
2021/12/23 04:24:37;;;;;;;23.35;19.25;;;;;;;;;;4978561;28;20146;-75
2021/12/23 04:27:03;;;;;;;39.50;23.98;;;;;;;;;;4971614;28;20035;-76
2021/12/23 04:29:29;;;;;;;14.95;13.50;;;;;;;;;;4970367;28;20352;-75
2021/12/23 04:31:54;;;;;;;28.23;18.17;;;;;;;;;;4979578;28;20493;-76
2021/12/23 04:34:20;;;;;;;18.67;16.80;;;;;;;;;;4970433;28;20043;-75
2021/12/23 04:36:46;;;;;;;40.10;25.80;;;;;;;;;;4970751;28;20038;-76
2021/12/23 04:39:11;;;;;;;44.50;25.75;;;;;;;;;;4968728;28;20042;-75
2021/12/23 04:41:38;;;;;;;33.45;24.33;;;;;;;;;;4979189;28;20035;-76
2021/12/23 04:44:05;;;;;;;20.83;17.85;;;;;;;;;;4971105;28;20134;-75
2021/12/23 04:46:31;;;;;;;34.60;22.15;;;;;;;;;;4970804;28;20026;-75
2021/12/23 04:48:56;;;;;;;29.38;20.38;;;;;;;;;;4974566;28;20042;-76
2021/12/23 04:51:22;;;;;;;36.47;23.52;;;;;;;;;;4970738;28;20089;-74
2021/12/23 04:53:48;;;;;;;25.42;19.52;;;;;;;;;;4971396;28;20106;-76
2021/12/23 04:56:15;;;;;;;36.60;23.42;;;;;;;;;;4969529;28;20418;-77
2021/12/23 04:58:42;;;;;;;27.88;20.35;;;;;;;;;;4973609;28;20084;-76
2021/12/23 05:01:16;;;;;;;39.60;24.55;;;;;;;;;;4969233;28;20061;-76
2021/12/23 05:03:42;;;;;;;38.03;24.25;;;;;;;;;;4971000;28;20097;-77
2021/12/23 05:06:08;;;;;;;35.90;23.83;;;;;;;;;;4969201;28;20121;-76
2021/12/23 05:08:33;;;;;;;33.03;22.48;;;;;;;;;;4977168;28;20085;-76
2021/12/23 05:10:59;;;;;;;41.28;23.13;;;;;;;;;;4970424;28;20518;-76
2021/12/23 05:13:24;;;;;;;30.38;22.10;;;;;;;;;;4971441;28;20030;-75
2021/12/23 05:15:50;;;;;;;32.47;22.27;;;;;;;;;;4970580;28;20223;-77
2021/12/23 05:18:16;;;;;;;19.08;17.10;;;;;;;;;;4976564;28;20038;-76
2021/12/23 05:20:41;;;;;;;41.05;25.35;;;;;;;;;;4970076;28;20417;-76
2021/12/23 05:23:07;;;;;;;27.23;19.55;;;;;;;;;;4970283;28;20137;-75
2021/12/23 05:25:33;;;;;;;24.75;19.42;;;;;;;;;;4970094;28;20062;-76
2021/12/23 05:28:00;;;;;;;31.95;21.95;;;;;;;;;;4975134;28;20031;-77
2021/12/23 05:30:27;;;;;;;24.92;19.50;;;;;;;;;;4969551;28;20045;-73
2021/12/23 05:32:53;;;;;;;22.83;17.15;;;;;;;;;;4966856;28;20035;-74
2021/12/23 05:35:20;;;;;;;17.23;15.43;;;;;;;;;;4970856;28;20070;-74
2021/12/23 05:37:47;;;;;;;23.63;18.33;;;;;;;;;;4968995;28;20046;-75
2021/12/23 05:40:15;;;;;;;22.75;17.60;;;;;;;;;;4963435;28;20552;-76
2021/12/23 05:42:42;;;;;;;30.60;21.13;;;;;;;;;;4968520;28;20033;-76
2021/12/23 05:45:08;;;;;;;32.35;20.23;;;;;;;;;;4966524;28;20030;-76
2021/12/23 05:47:34;;;;;;;25.30;19.23;;;;;;;;;;4969380;28;20089;-74
2021/12/23 05:49:59;;;;;;;24.70;20.00;;;;;;;;;;4968301;28;20572;-76
2021/12/23 05:52:25;;;;;;;35.28;21.42;;;;;;;;;;4973729;28;20047;-76
2021/12/23 05:54:51;;;;;;;33.08;21.33;;;;;;;;;;4970575;28;20047;-76
2021/12/23 05:57:17;;;;;;;36.30;22.90;;;;;;;;;;4970381;28;20490;-74
2021/12/23 05:59:43;;;;;;;46.30;24.77;;;;;;;;;;4968309;28;20042;-77
2021/12/23 06:02:09;;;;;;;40.22;24.27;;;;;;;;;;4969532;28;20549;-74
2021/12/23 06:04:35;;;;;;;14.27;13.18;;;;;;;;;;4969926;28;20038;-74
2021/12/23 06:07:02;;;;;;;25.27;19.95;;;;;;;;;;4969492;28;20034;-76
2021/12/23 06:09:28;;;;;;;30.80;21.70;;;;;;;;;;4972638;28;20053;-74
2021/12/23 06:11:53;;;;;;;26.20;18.50;;;;;;;;;;4968800;28;20034;-75
2021/12/23 06:14:21;;;;;;;38.53;23.45;;;;;;;;;;4969773;28;20556;-75
2021/12/23 06:16:46;;;;;;;31.05;21.95;;;;;;;;;;4971047;28;20061;-76
2021/12/23 06:19:12;;;;;;;24.67;18.27;;;;;;;;;;4972745;28;20081;-73
2021/12/23 06:21:38;;;;;;;34.80;22.27;;;;;;;;;;4970439;28;20469;-76
2021/12/23 06:24:04;;;;;;;35.03;20.85;;;;;;;;;;4973113;28;20046;-76
2021/12/23 06:26:30;;;;;;;31.95;19.88;;;;;;;;;;4967844;28;20058;-75
2021/12/23 06:28:56;;;;;;;28.70;21.42;;;;;;;;;;4967855;28;20042;-75
2021/12/23 06:31:22;;;;;;;16.27;14.63;;;;;;;;;;4971934;28;20405;-75
2021/12/23 06:33:47;;;;;;;23.13;19.23;;;;;;;;;;4973937;28;20077;-74
2021/12/23 06:36:13;;;;;;;17.00;14.55;;;;;;;;;;4969263;28;20035;-75
2021/12/23 06:38:42;;;;;;;31.50;22.55;;;;;;;;;;4968382;28;20766;-76
2021/12/23 06:41:09;;;;;;;23.83;19.05;;;;;;;;;;4971846;28;20038;-74
2021/12/23 06:43:35;;;;;;;31.27;19.80;;;;;;;;;;4972394;28;20034;-75
2021/12/23 06:46:02;;;;;;;16.38;15.02;;;;;;;;;;4969286;28;20035;-76
2021/12/23 06:48:29;;;;;;;18.70;16.90;;;;;;;;;;4967860;28;20138;-77
2021/12/23 06:50:56;;;;;;;28.98;19.85;;;;;;;;;;4977711;28;20092;-77
2021/12/23 06:53:22;;;;;;;25.50;17.73;;;;;;;;;;4969186;28;20035;-78
2021/12/23 06:55:50;;;;;;;22.95;17.13;;;;;;;;;;4970821;28;20030;-79
2021/12/23 06:58:16;;;;;;;29.57;20.47;;;;;;;;;;4973162;28;20039;-75
2021/12/23 07:00:42;;;;;;;31.08;21.17;;;;;;;;;;4970744;28;20414;-76
2021/12/23 07:03:08;;;;;;;41.30;24.55;;;;;;;;;;4972766;28;20043;-78
2021/12/23 07:05:34;;;;;;;24.52;20.05;;;;;;;;;;4976373;28;20039;-75
2021/12/23 07:08:10;;;;;;;60.97;35.50;;;;;;;;;;4992343;28;20034;-77
2021/12/23 07:10:36;;;;;;;27.48;21.38;;;;;;;;;;4972377;28;20105;-76
2021/12/23 07:13:01;;;;;;;27.98;20.08;;;;;;;;;;4972542;28;20038;-75
2021/12/23 07:15:28;;;;;;;32.78;21.40;;;;;;;;;;4978175;28;20046;-79
2021/12/23 07:17:55;;;;;;;36.65;23.75;;;;;;;;;;4973202;28;20026;-78
2021/12/23 07:20:26;;;;;;;26.38;17.83;;;;;;;;;;4972360;28;20137;-78
2021/12/23 07:22:51;;;;;;;40.42;24.55;;;;;;;;;;4970941;28;20034;-78
2021/12/23 07:25:17;;;;;;;35.17;22.70;;;;;;;;;;4972134;28;20035;-77
2021/12/23 07:27:44;;;;;;;30.33;20.27;;;;;;;;;;4972514;28;20066;-77
2021/12/23 07:30:12;;;;;;;28.50;21.58;;;;;;;;;;4971303;28;20070;-77
2021/12/23 07:32:37;;;;;;;36.70;22.90;;;;;;;;;;4981344;28;20035;-77
2021/12/23 07:35:05;;;;;;;41.90;26.17;;;;;;;;;;4972569;28;20128;-77
2021/12/23 07:37:31;;;;;;;34.67;24.42;;;;;;;;;;4971003;28;20141;-77
2021/12/23 07:39:56;;;;;;;33.47;24.33;;;;;;;;;;4973321;28;20430;-77
2021/12/23 07:42:22;;;;;;;22.35;18.80;;;;;;;;;;4972564;28;20053;-78
2021/12/23 07:44:48;;;;;;;26.75;20.10;;;;;;;;;;4970720;28;20402;-77
2021/12/23 07:47:14;;;;;;;20.23;17.38;;;;;;;;;;4970613;28;20054;-77
2021/12/23 07:49:43;;;;;;;32.70;18.25;;;;;;;;;;4971521;28;20038;-80
2021/12/23 07:52:09;;;;;;;33.90;23.42;;;;;;;;;;4971877;28;20778;-77
2021/12/23 07:54:35;;;;;;;22.08;18.17;;;;;;;;;;4973080;28;20034;-77
2021/12/23 07:57:02;;;;;;;25.63;18.65;;;;;;;;;;4980653;28;20046;-76
2021/12/23 07:59:28;;;;;;;21.63;16.88;;;;;;;;;;4975523;28;20026;-75
2021/12/23 08:01:55;;;;;;;37.95;23.85;;;;;;;;;;4982901;28;20031;-77
2021/12/23 08:04:21;;;;;;;35.80;22.30;;;;;;;;;;4973353;28;20039;-78
2021/12/23 08:06:52;;;;;;;18.55;15.57;;;;;;;;;;4973187;28;20046;-77
2021/12/23 08:09:17;;;;;;;24.45;18.02;;;;;;;;;;4971496;28;20062;-77
2021/12/23 08:11:43;;;;;;;23.10;19.83;;;;;;;;;;4969649;28;20128;-80
2021/12/23 08:14:09;;;;;;;28.25;19.13;;;;;;;;;;4962725;28;20035;-79
2021/12/23 08:16:34;;;;;;;24.52;18.25;;;;;;;;;;4971306;28;20101;-77
2021/12/23 08:19:00;;;;;;;15.20;13.73;;;;;;;;;;4969506;28;20390;-77
2021/12/23 08:21:28;;;;;;;18.67;15.60;;;;;;;;;;4980978;28;20062;-78
2021/12/23 08:23:54;;;;;;;30.92;20.63;;;;;;;;;;4973445;28;20034;-76
2021/12/23 08:26:22;;;;;;;24.65;20.35;;;;;;;;;;4970752;28;20039;-78
2021/12/23 08:28:48;;;;;;;35.17;22.42;;;;;;;;;;4985568;28;20034;-78
2021/12/23 08:31:14;;;;;;;34.45;22.63;;;;;;;;;;4968400;28;20038;-77
2021/12/23 08:33:39;;;;;;;35.08;22.48;;;;;;;;;;4971892;28;20110;-81
2021/12/23 08:36:05;;;;;;;15.93;14.50;;;;;;;;;;4969673;28;20134;-77
2021/12/23 08:38:30;;;;;;;37.05;22.58;;;;;;;;;;4968762;28;20046;-78
2021/12/23 08:40:56;;;;;;;39.80;18.35;;;;;;;;;;4969047;28;20462;-77
2021/12/23 08:43:23;;;;;;;30.75;20.50;;;;;;;;;;4973471;28;20035;-78
2021/12/23 08:45:49;;;;;;;34.08;19.63;;;;;;;;;;4969111;28;20046;-76
2021/12/23 08:48:14;;;;;;;18.98;16.35;;;;;;;;;;4968418;28;20038;-77
2021/12/23 08:50:40;;;;;;;37.80;21.55;;;;;;;;;;4971303;28;20045;-80
2021/12/23 08:53:06;;;;;;;18.70;15.98;;;;;;;;;;4971730;28;20054;-77
2021/12/23 08:55:33;;;;;;;29.42;21.60;;;;;;;;;;4970874;28;20162;-76
2021/12/23 08:58:03;;;;;;;32.17;20.10;;;;;;;;;;4972317;28;20038;-78
2021/12/23 09:00:30;;;;;;;32.40;21.25;;;;;;;;;;4970144;28;20556;-78
2021/12/23 09:02:56;;;;;;;26.27;18.73;;;;;;;;;;4970541;28;20066;-77
2021/12/23 09:05:22;;;;;;;18.33;15.73;;;;;;;;;;4967541;28;20046;-76
2021/12/23 09:07:50;;;;;;;37.53;23.27;;;;;;;;;;4970822;28;20035;-77
2021/12/23 09:10:16;;;;;;;34.83;20.38;;;;;;;;;;4972261;28;20133;-77
2021/12/23 09:12:42;;;;;;;21.38;17.88;;;;;;;;;;4970604;28;20039;-77
2021/12/23 09:15:09;;;;;;;25.42;19.42;;;;;;;;;;4987156;28;20038;-75
2021/12/23 09:17:35;;;;;;;23.50;18.90;;;;;;;;;;4971137;28;20041;-77
2021/12/23 09:20:01;;;;;;;28.33;21.05;;;;;;;;;;4970272;28;20035;-76
2021/12/23 09:22:27;;;;;;;33.03;21.98;;;;;;;;;;4970216;28;20092;-77
2021/12/23 09:24:56;;;;;;;30.08;20.23;;;;;;;;;;4975771;28;20030;-75
2021/12/23 09:27:40;;;;;;;28.08;20.02;;;;;;;;;;4970413;28;20042;-77
2021/12/23 09:32:52;;;;;;;35.13;21.80;;;;;;;;;;4978125;28;20092;-78
2021/12/23 09:35:24;;;;;;;30.52;19.63;;;;;;;;;;4970312;28;20046;-77
2021/12/23 09:37:49;;;;;;;39.13;21.65;;;;;;;;;;4970284;28;20069;-76
2021/12/23 09:40:16;;;;;;;30.67;20.02;;;;;;;;;;4968549;28;20038;-79
2021/12/23 09:42:43;;;;;;;24.13;17.25;;;;;;;;;;4979348;28;20043;-77
2021/12/23 09:45:12;;;;;;;23.30;17.25;;;;;;;;;;4963668;28;20043;-77
2021/12/23 09:47:41;;;;;;;20.42;16.98;;;;;;;;;;4966385;28;20045;-76
2021/12/23 09:50:10;;;;;;;27.95;19.27;;;;;;;;;;4969073;28;20146;-77
2021/12/23 09:52:42;;;;;;;37.63;22.58;;;;;;;;;;4971299;28;20394;-77
2021/12/23 09:55:09;;;;;;;29.25;19.33;;;;;;;;;;4979459;28;20074;-76
2021/12/23 09:57:35;;;;;;;19.67;15.40;;;;;;;;;;4970122;28;20038;-78
2021/12/23 10:00:05;;;;;;;19.10;16.02;;;;;;;;;;4973854;28;20046;-78
2021/12/23 10:02:35;;;;;;;20.55;16.30;;;;;;;;;;4969443;28;20062;-75
2021/12/23 10:05:02;;;;;;;37.17;22.85;;;;;;;;;;4969210;28;20042;-78
2021/12/23 10:07:27;;;;;;;35.20;23.30;;;;;;;;;;4967582;28;20046;-77
2021/12/23 10:37:22;;;;;;;37.45;21.98;;;;;;;;;;4954366;28;20081;-77
2021/12/23 10:40:12;;;;;;;34.28;22.00;;;;;;;;;;4970024;28;20118;-81
2021/12/23 10:42:47;;;;;;;37.83;24.05;;;;;;;;;;4956452;28;20050;-78
2021/12/23 10:45:13;;;;;;;36.45;22.67;;;;;;;;;;4960373;28;20034;-78
2021/12/23 10:48:03;;;;;;;35.45;22.35;;;;;;;;;;4968837;28;20090;-77
2021/12/23 10:51:19;;;;;;;30.08;20.35;;;;;;;;;;4981376;28;20039;-78
2021/12/23 10:59:19;;;;;;;49.38;27.25;;;;;;;;;;4970390;28;20039;-77
2021/12/23 11:02:05;;;;;;;38.85;23.98;;;;;;;;;;4968039;28;20065;-77
2021/12/23 11:04:47;;;;;;;37.08;22.45;;;;;;;;;;4971377;28;20928;-77
2021/12/23 11:07:26;;;;;;;36.20;22.58;;;;;;;;;;4971373;28;20035;-76
2021/12/23 11:10:09;;;;;;;30.38;20.60;;;;;;;;;;4968418;28;20098;-77
2021/12/23 11:37:42;;;;;;;37.38;20.73;;;;;;;;;;4965197;28;20564;-78
2021/12/23 11:40:36;;;;;;;33.67;20.92;;;;;;;;;;4967200;28;20054;-76
2021/12/23 11:43:26;;;;;;;46.35;28.23;;;;;;;;;;4970024;28;20039;-78
2021/12/23 11:45:51;;;;;;;35.83;22.02;;;;;;;;;;4979170;28;20169;-78
2021/12/23 11:48:17;;;;;;;36.92;22.63;;;;;;;;;;4979371;28;20105;-78
2021/12/23 11:53:39;;;;;;;41.20;24.08;;;;;;;;;;4985777;28;20844;-78
2021/12/23 11:56:08;;;;;;;31.23;20.73;;;;;;;;;;4983167;28;20089;-81
2021/12/23 11:58:33;;;;;;;40.10;24.35;;;;;;;;;;4978648;28;20521;-81
2021/12/23 12:01:08;;;;;;;39.03;23.83;;;;;;;;;;4977824;28;20054;-77
2021/12/23 12:03:53;;;;;;;39.53;23.30;;;;;;;;;;4974885;28;20123;-79
2021/12/23 12:06:39;;;;;;;38.55;21.88;;;;;;;;;;4977379;28;20041;-77
2021/12/23 12:09:09;;;;;;;32.13;20.65;;;;;;;;;;4978084;28;20118;-76
2021/12/23 12:11:35;;;;;;;32.85;20.35;;;;;;;;;;4975764;28;20113;-76
2021/12/23 12:14:00;;;;;;;37.40;22.15;;;;;;;;;;4976006;28;20430;-76
2021/12/23 12:16:35;;;;;;;31.27;21.58;;;;;;;;;;4973934;28;20406;-77
2021/12/23 12:19:10;;;;;;;45.45;25.88;;;;;;;;;;4978728;28;20043;-79
2021/12/23 12:21:36;;;;;;;35.47;22.23;;;;;;;;;;4970984;28;20066;-79
2021/12/23 12:24:11;;;;;;;37.30;23.38;;;;;;;;;;4972659;28;20113;-80
2021/12/23 12:26:57;;;;;;;27.90;20.02;;;;;;;;;;4974465;28;20077;-78
2021/12/23 12:29:36;;;;;;;36.80;22.38;;;;;;;;;;4974734;28;20046;-78
2021/12/23 12:32:04;;;;;;;36.42;24.33;;;;;;;;;;4966126;28;20039;-79
2021/12/23 12:34:32;;;;;;;37.08;22.40;;;;;;;;;;4973938;28;20035;-77
2021/12/23 12:36:59;;;;;;;40.05;22.90;;;;;;;;;;4973662;28;20030;-78
2021/12/23 12:39:47;;;;;;;33.95;22.30;;;;;;;;;;4972552;28;20042;-80
2021/12/23 12:42:36;;;;;;;35.67;20.98;;;;;;;;;;4966806;28;20047;-77
2021/12/23 12:45:09;;;;;;;;;;;;;;;;;;4971361;28;20046;-74
2021/12/23 12:47:47;;;;;;;34.00;23.25;;;;;;;;;;4970831;28;19925;-80
2021/12/23 12:50:15;;;;;;;38.17;22.40;;;;;;;;;;4969253;28;20031;-78
2021/12/23 12:52:45;;;;;;;38.95;23.10;;;;;;;;;;4970685;28;20126;-80
2021/12/23 12:55:23;;;;;;;43.88;23.30;;;;;;;;;;4970789;28;20035;-77
2021/12/23 12:57:55;;;;;;;33.67;20.80;;;;;;;;;;4970647;28;20031;-79
2021/12/23 13:00:35;;;;;;;28.48;19.63;;;;;;;;;;4975827;28;20031;-78
2021/12/23 13:03:09;;;;;;;35.05;22.65;;;;;;;;;;4969578;28;20041;-81
2021/12/23 13:05:43;;;;;;;25.17;17.70;;;;;;;;;;4963242;28;20514;-78
2021/12/23 13:08:16;;;;;;;32.95;20.48;;;;;;;;;;4969150;28;20035;-78
2021/12/23 13:10:50;;;;;;;39.00;24.92;;;;;;;;;;4967338;28;20058;-75
2021/12/23 13:13:59;;;;;;;35.25;23.58;;;;;;;;;;4964714;28;20050;-83
2021/12/23 13:16:53;;;;;;;33.83;22.08;;;;;;;;;;4969132;28;20038;-79
2021/12/23 13:19:22;;;;;;;37.45;22.90;;;;;;;;;;4971773;28;20035;-75
2021/12/23 13:21:54;;;;;;;42.10;23.67;;;;;;;;;;4968822;28;20437;-75
2021/12/23 13:24:22;;;;;;;37.83;23.17;;;;;;;;;;4978988;28;20093;-80
2021/12/23 13:26:49;;;;;;;35.40;22.80;;;;;;;;;;4976332;28;20038;-77
2021/12/23 13:29:14;;;;;;;31.38;21.95;;;;;;;;;;4972310;28;20089;-78
2021/12/23 13:31:42;;;;;;;26.92;19.75;;;;;;;;;;4970438;28;20051;-78
2021/12/23 13:34:16;;;;;;;23.15;18.88;;;;;;;;;;4972399;28;20039;-77
2021/12/23 13:36:57;;;;;;;30.20;19.08;;;;;;;;;;4971926;28;20066;-78
2021/12/23 13:39:29;;;;;;;25.40;16.15;;;;;;;;;;4970297;28;20053;-82
2021/12/23 13:42:01;;;;;;;24.15;17.42;;;;;;;;;;4956897;28;20035;-80
2021/12/23 13:44:34;;;;;;;30.35;19.23;;;;;;;;;;4986643;28;20038;-78
2021/12/23 13:47:04;;;;;;;25.02;18.50;;;;;;;;;;4968191;28;20046;-81
2021/12/23 13:49:50;;;;;;;29.38;20.70;;;;;;;;;;4972938;28;20046;-80
2021/12/23 13:52:38;;;;;;;28.02;18.70;;;;;;;;;;4971575;28;20050;-78
2021/12/23 13:55:08;;;;;;;27.33;20.40;;;;;;;;;;4966806;28;20034;-78
2021/12/23 13:57:36;;;;;;;73.43;33.65;;;;;;;;;;4974126;28;20304;-79
2021/12/23 14:00:12;;;;;;;128.60;61.40;;;;;;;;;;4973894;28;20144;-78
2021/12/23 14:02:38;;;;;;;39.63;24.42;;;;;;;;;;4967124;28;20173;-78
2021/12/23 14:05:06;;;;;;;42.55;28.10;;;;;;;;;;4968108;28;20426;-75
2021/12/23 14:07:35;;;;;;;40.60;23.50;;;;;;;;;;4970108;28;20510;-76
2021/12/23 14:10:08;;;;;;;42.83;30.08;;;;;;;;;;4966814;28;20470;-76
2021/12/23 14:12:51;;;;;;;40.13;24.20;;;;;;;;;;4965441;28;20086;-77
2021/12/23 14:15:27;;;;;;;38.83;23.83;;;;;;;;;;4972864;28;20051;-77
2021/12/23 14:24:07;;;;;;;30.08;21.67;;;;;;;;;;4969747;28;20039;-76
2021/12/23 14:26:33;;;;;;;29.70;21.75;;;;;;;;;;4967887;28;20116;-77
2021/12/23 14:29:09;;;;;;;32.55;23.95;;;;;;;;;;4967683;28;20494;-81
2021/12/23 14:31:41;;;;;;;25.48;18.73;;;;;;;;;;4966545;28;20045;-75
2021/12/23 14:34:16;;;;;;;32.58;20.45;;;;;;;;;;4966715;28;20042;-76
2021/12/23 14:36:47;;;;;;;28.73;17.67;;;;;;;;;;4966820;28;20042;-79
2021/12/23 14:39:15;;;;;;;24.13;17.02;;;;;;;;;;4965734;28;20097;-76
2021/12/23 14:41:43;;;;;;;29.60;18.60;;;;;;;;;;4968295;28;20046;-79
2021/12/23 14:44:15;;;;;;;25.60;19.73;;;;;;;;;;4964374;28;20030;-78
2021/12/23 14:46:46;;;;;;;24.33;16.02;;;;;;;;;;4965162;28;20074;-77
2021/12/23 14:49:31;;;;;;;27.52;19.08;;;;;;;;;;4967904;28;20123;-78
2021/12/23 14:52:33;;;;;;;25.90;16.90;;;;;;;;;;4961099;28;20612;-75
2021/12/23 14:55:03;;;;;;;24.42;16.90;;;;;;;;;;4961603;28;20058;-77
2021/12/23 14:57:38;;;;;;;25.08;18.08;;;;;;;;;;4968418;28;20035;-74
2021/12/23 15:00:14;;;;;;;31.88;19.48;;;;;;;;;;4966119;28;20121;-77
2021/12/23 15:02:40;;;;;;;24.27;17.80;;;;;;;;;;4967826;28;20060;-77
2021/12/23 15:05:06;;;;;;;30.17;21.25;;;;;;;;;;4967418;28;20042;-78
2021/12/23 15:08:06;;;;;;;26.25;17.40;;;;;;;;;;4967170;28;20050;-76
2021/12/23 15:10:44;;;;;;;26.23;17.70;;;;;;;;;;4967888;28;20038;-76
2021/12/23 15:13:13;;;;;;;28.08;16.63;;;;;;;;;;4965528;28;20042;-76
2021/12/23 15:15:39;;;;;;;35.83;21.45;;;;;;;;;;4972197;28;20042;-77
2021/12/23 15:18:24;;;;;;;29.08;18.88;;;;;;;;;;4962232;28;20089;-78
2021/12/23 15:20:51;;;;;;;22.80;15.95;;;;;;;;;;4972705;28;20041;-77
2021/12/23 15:23:38;;;;;;;15.80;13.80;;;;;;;;;;4969535;28;20040;-77
2021/12/23 15:26:19;;;;;;;15.75;13.30;;;;;;;;;;4970295;28;20053;-77
2021/12/23 15:29:08;;;;;;;17.63;13.35;;;;;;;;;;4974909;28;20065;-79
2021/12/23 15:31:33;;;;;;;17.38;13.70;;;;;;;;;;4973445;28;20113;-79
2021/12/23 15:33:59;;;;;;;15.68;13.80;;;;;;;;;;4970656;28;20114;-78
2021/12/23 15:36:25;;;;;;;23.67;15.90;;;;;;;;;;4977402;28;20038;-76
2021/12/23 15:38:50;;;;;;;27.55;18.27;;;;;;;;;;4974945;28;20463;-76
2021/12/23 15:41:16;;;;;;;24.77;18.38;;;;;;;;;;4972249;28;20042;-77
2021/12/23 15:43:42;;;;;;;19.67;15.93;;;;;;;;;;4972187;28;20035;-76